createdAt,value
2023-04-10T00:02:58.214Z,54.72
2023-04-10T00:07:54.813Z,55.55
2023-04-10T00:12:53.365Z,57.10
2023-04-10T00:17:54.495Z,58.15
2023-04-10T00:22:51.839Z,59.21
2023-04-10T00:27:48.502Z,59.95
2023-04-10T00:32:45.173Z,59.97
2023-04-10T00:37:41.993Z,61.61
2023-04-10T00:42:39.899Z,62.54
2023-04-10T00:47:37.253Z,63.52
2023-04-10T00:52:34.208Z,67.51
2023-04-10T00:57:30.834Z,66.13
2023-04-10T01:02:28.270Z,64.90
2023-04-10T01:07:29.979Z,65.05
2023-04-10T01:12:38.234Z,64.35
2023-04-10T01:17:40.057Z,62.71
2023-04-10T01:22:41.904Z,61.13
2023-04-10T01:27:44.200Z,61.32
2023-04-10T01:32:41.993Z,63.11
2023-04-10T01:37:41.136Z,63.01
2023-04-10T01:42:40.520Z,64.24
2023-04-10T01:47:38.235Z,65.15
2023-04-10T01:52:36.683Z,65.02
2023-04-10T01:57:40.354Z,64.90
2023-04-10T02:02:40.007Z,65.39
2023-04-10T02:07:40.971Z,65.32
2023-04-10T02:12:39.546Z,64.85
2023-04-10T02:17:36.748Z,65.16
2023-04-10T02:22:33.740Z,63.76
2023-04-10T02:27:31.599Z,65.60
2023-04-10T02:32:28.918Z,66.24
2023-04-10T02:37:25.764Z,66.62
2023-04-10T02:42:22.953Z,67.56
2023-04-10T02:47:23.347Z,68.08
2023-04-10T02:52:20.048Z,68.68
2023-04-10T02:57:17.121Z,68.48
2023-04-10T03:02:14.185Z,68.61
2023-04-10T03:07:11.851Z,69.11
2023-04-10T03:12:09.455Z,69.42
2023-04-10T03:17:06.854Z,69.53
2023-04-10T03:22:05.182Z,69.77
2023-04-10T03:27:02.605Z,69.87
2023-04-10T03:31:59.634Z,70.52
2023-04-10T03:36:57.102Z,70.28
2023-04-10T03:41:53.689Z,69.47
2023-04-10T03:46:55.384Z,70.67
2023-04-10T03:51:52.617Z,68.95
2023-04-10T03:56:49.183Z,69.13
2023-04-10T04:01:46.038Z,67.78
2023-04-10T04:06:43.350Z,67.21
2023-04-10T04:12:12.124Z,65.40
2023-04-10T04:17:33.582Z,66.25
2023-04-10T04:22:37.168Z,65.10
2023-04-10T04:27:57.134Z,65.71
2023-04-10T04:33:03.280Z,65.71
2023-04-10T04:38:21.238Z,66.23
2023-04-10T04:43:40.774Z,67.67
2023-04-10T04:48:57.883Z,67.45
2023-04-10T04:54:15.228Z,67.72
2023-04-10T04:59:38.224Z,67.11
2023-04-10T05:04:45.126Z,67.34
2023-04-10T05:10:00.999Z,69.35
2023-04-10T05:15:20.182Z,69.13
2023-04-10T05:20:29.537Z,68.19
2023-04-10T05:25:39.956Z,67.82
2023-04-10T05:30:49.563Z,67.81
2023-04-10T05:36:17.555Z,67.35
2023-04-10T05:41:34.524Z,67.45
2023-04-10T05:46:57.231Z,66.25
2023-04-10T05:52:10.388Z,66.95
2023-04-10T05:57:31.858Z,67.10
2023-04-10T06:02:47.360Z,66.91
2023-04-10T06:07:52.706Z,67.09
2023-04-10T06:12:50.197Z,65.05
2023-04-10T06:17:47.235Z,65.23
2023-04-10T06:22:45.420Z,65.20
2023-04-10T06:27:57.380Z,65.96
2023-04-10T06:39:09.232Z,65.90
2023-04-10T06:44:07.643Z,66.35
2023-04-10T06:56:29.542Z,67.44
2023-04-10T08:25:14.498Z,60.11
2023-04-10T08:36:50.726Z,59.58
2023-04-10T08:41:47.589Z,58.53
2023-04-10T08:46:45.060Z,58.02
2023-04-10T08:51:43.357Z,59.01
2023-04-10T08:56:42.381Z,58.69
2023-04-10T09:01:40.024Z,58.32
2023-04-10T09:06:37.036Z,58.58
2023-04-10T09:11:52.477Z,56.92
2023-04-10T09:16:50.350Z,56.09
2023-04-10T09:21:50.128Z,56.50
2023-04-10T09:26:46.760Z,55.56
2023-04-10T09:31:43.766Z,55.86
2023-04-10T09:36:42.858Z,54.07
2023-04-10T09:41:49.714Z,53.18
2023-04-10T09:46:46.833Z,52.89
2023-04-10T09:51:44.459Z,51.68
2023-04-10T09:56:43.641Z,50.45
2023-04-10T10:01:41.815Z,49.56
2023-04-10T10:06:40.513Z,50.24
2023-04-10T10:11:38.146Z,50.07
2023-04-10T10:16:38.037Z,48.08
2023-04-10T10:21:36.060Z,47.23
2023-04-10T10:26:34.284Z,46.34
2023-04-10T10:31:33.392Z,46.04
2023-04-10T10:36:31.394Z,44.60
2023-04-10T10:41:31.037Z,42.31
2023-04-10T10:46:34.105Z,41.57
2023-04-10T10:51:45.132Z,41.87
2023-04-10T10:56:45.859Z,42.36
2023-04-10T11:02:09.921Z,42.71
2023-04-10T11:07:07.657Z,41.67
2023-04-10T11:12:08.063Z,41.72
2023-04-10T11:17:06.340Z,42.39
2023-04-10T11:22:14.890Z,42.37
2023-04-10T11:27:33.684Z,42.75
2023-04-10T11:32:40.811Z,41.27
2023-04-10T11:37:38.316Z,41.17
2023-04-10T11:42:35.133Z,41.32
2023-04-10T11:47:31.761Z,40.68
2023-04-10T11:52:28.508Z,41.44
2023-04-10T11:57:40.063Z,41.01
2023-04-10T12:02:50.110Z,41.93
2023-04-10T12:07:48.366Z,39.95
2023-04-10T12:12:45.744Z,39.07
2023-04-10T12:17:42.626Z,39.86
2023-04-10T12:22:40.389Z,38.38
2023-04-10T12:27:50.955Z,37.80
2023-04-10T12:32:51.346Z,39.20
2023-04-10T12:37:48.815Z,40.32
2023-04-10T12:42:45.529Z,40.53
2023-04-10T12:47:46.199Z,38.21
2023-04-10T12:52:43.841Z,37.31
2023-04-10T12:57:40.744Z,36.59
2023-04-10T13:02:40.501Z,38.81
2023-04-10T13:07:43.718Z,37.80
2023-04-10T13:12:41.613Z,37.34
2023-04-10T13:17:40.586Z,37.02
2023-04-10T13:22:40.002Z,38.97
2023-04-10T13:27:46.729Z,37.87
2023-04-10T13:32:43.724Z,38.08
2023-04-10T13:37:40.991Z,38.06
2023-04-10T13:42:39.918Z,37.95
2023-04-10T13:47:38.067Z,36.43
2023-04-10T13:52:34.640Z,36.42
2023-04-10T13:57:31.981Z,36.87
2023-04-10T14:02:28.710Z,36.48
2023-04-10T14:07:25.556Z,37.82
2023-04-10T14:12:24.335Z,37.63
2023-04-10T14:17:23.659Z,37.55
2023-04-10T14:22:20.479Z,37.66
2023-04-10T14:27:17.346Z,38.06
2023-04-10T14:32:14.165Z,38.37
2023-04-10T14:37:13.020Z,36.92
2023-04-10T14:42:14.173Z,37.37
2023-04-10T14:47:10.833Z,36.40
2023-04-10T14:52:07.932Z,37.54
2023-04-10T14:57:06.715Z,37.68
2023-04-10T15:02:03.527Z,37.92
2023-04-10T15:07:00.438Z,38.33
2023-04-10T15:11:57.071Z,38.47
2023-04-10T15:16:54.575Z,39.13
2023-04-10T15:21:51.682Z,39.42
2023-04-10T15:26:48.607Z,39.04
2023-04-10T15:31:45.368Z,39.90
2023-04-10T15:36:42.917Z,40.71
2023-04-10T15:41:39.564Z,40.78
2023-04-10T15:46:37.072Z,40.85
2023-04-10T15:51:33.977Z,41.58
2023-04-10T15:56:55.827Z,41.54
2023-04-10T16:02:08.116Z,41.83
2023-04-10T16:07:05.029Z,41.85
2023-04-10T16:12:02.534Z,41.46
2023-04-10T16:16:59.740Z,41.61
2023-04-10T16:21:56.533Z,41.46
2023-04-10T16:26:53.631Z,42.18
2023-04-10T16:31:51.187Z,42.20
2023-04-10T16:36:48.085Z,42.60
2023-04-10T16:41:44.828Z,42.46
2023-04-10T16:46:41.449Z,42.60
2023-04-10T16:51:38.904Z,42.69
2023-04-10T16:56:37.314Z,42.93
2023-04-10T17:01:38.891Z,42.78
2023-04-10T17:06:35.625Z,42.78
2023-04-10T17:11:35.307Z,42.61
2023-04-10T17:16:31.957Z,42.61
2023-04-10T17:21:29.061Z,42.68
2023-04-10T17:26:25.747Z,43.49
2023-04-10T17:31:23.166Z,43.77
2023-04-10T17:36:20.149Z,43.81
2023-04-10T17:41:16.766Z,43.62
2023-04-10T17:46:14.108Z,43.93
2023-04-10T17:51:11.480Z,44.40
2023-04-10T17:56:08.276Z,44.40
2023-04-10T18:01:06.766Z,44.87
2023-04-10T18:06:03.518Z,45.14
2023-04-10T18:11:00.962Z,45.38
2023-04-10T18:15:59.181Z,46.29
2023-04-10T18:20:57.266Z,47.00
2023-04-10T18:25:54.196Z,47.36
2023-04-10T18:30:57.948Z,47.03
2023-04-10T18:35:56.755Z,47.21
2023-04-10T18:40:57.602Z,47.74
2023-04-10T18:45:56.300Z,47.76
2023-04-10T18:50:53.582Z,47.98
2023-04-10T18:55:51.136Z,48.09
2023-04-10T19:00:47.888Z,47.72
2023-04-10T19:05:45.496Z,47.80
2023-04-10T19:10:42.314Z,48.04
2023-04-10T19:15:40.188Z,47.87
2023-04-10T19:20:49.860Z,47.89
2023-04-10T19:25:51.685Z,47.87
2023-04-10T19:30:48.456Z,47.98
2023-04-10T19:35:45.147Z,47.94
2023-04-10T19:40:41.861Z,48.06
2023-04-10T19:45:44.685Z,47.86
2023-04-10T19:50:41.690Z,48.55
2023-04-10T19:55:39.814Z,50.26
2023-04-10T20:00:36.472Z,51.94
2023-04-10T20:05:33.880Z,49.18
2023-04-10T20:10:30.663Z,48.93
2023-04-10T20:15:27.307Z,51.10
2023-04-10T20:20:24.238Z,52.37
2023-04-10T20:25:21.604Z,51.70
2023-04-10T20:30:18.300Z,53.23
2023-04-10T20:35:15.339Z,53.91
2023-04-10T20:40:12.013Z,54.86
2023-04-10T20:45:10.392Z,57.11
2023-04-10T20:50:07.829Z,56.60
2023-04-10T20:55:04.785Z,56.32
2023-04-10T21:00:01.498Z,56.55
2023-04-10T21:04:59.078Z,56.17
2023-04-10T21:09:55.707Z,55.58
2023-04-10T21:14:52.384Z,53.26
2023-04-10T21:19:49.096Z,54.63
2023-04-10T21:24:46.555Z,55.47
2023-04-10T21:29:43.236Z,58.23
2023-04-10T21:34:39.922Z,60.66
2023-04-10T21:39:39.703Z,60.41
2023-04-10T21:44:37.186Z,59.50
2023-04-10T21:49:33.823Z,58.56
2023-04-10T21:54:30.487Z,59.86
2023-04-10T21:59:27.252Z,59.35
2023-04-10T22:04:24.693Z,58.56
2023-04-10T22:09:21.788Z,59.17
2023-04-10T22:14:20.791Z,59.71
2023-04-10T22:19:18.064Z,59.46
2023-04-10T22:24:15.381Z,59.84
2023-04-10T22:29:13.910Z,61.43
2023-04-10T22:34:10.829Z,61.32
2023-04-10T22:39:07.585Z,61.57
2023-04-10T22:44:07.220Z,61.58
2023-04-10T22:49:03.967Z,61.62
2023-04-10T22:54:00.581Z,60.68
2023-04-10T22:58:57.470Z,61.28
2023-04-10T23:03:54.777Z,61.83
2023-04-10T23:08:51.402Z,62.64
2023-04-10T23:13:48.361Z,64.36
2023-04-10T23:18:45.177Z,65.68
2023-04-10T23:23:42.593Z,65.35
2023-04-10T23:28:39.343Z,66.29
2023-04-10T23:33:35.921Z,66.93
2023-04-10T23:38:32.782Z,66.99
2023-04-10T23:43:30.079Z,67.51
2023-04-10T23:48:29.466Z,67.89
2023-04-10T23:53:26.001Z,67.29
2023-04-10T23:58:22.571Z,66.79
